sensor_id;sensor_type;location;lat;lon;timestamp;P1;durP1;ratioP1;P2;durP2;ratioP2
795;SDS011;381;48.770;9.188;2023-05-07T00:04:46;4.50;;;3.80;;
795;SDS011;381;48.770;9.188;2023-05-07T00:09:50;4.07;;;3.77;;
795;SDS011;381;48.770;9.188;2023-05-07T00:14:52;4.20;;;3.90;;
795;SDS011;381;48.770;9.188;2023-05-07T00:19:54;4.17;;;3.90;;
795;SDS011;381;48.770;9.188;2023-05-07T00:24:57;4.00;;;3.80;;
795;SDS011;381;48.770;9.188;2023-05-07T00:30:00;4.53;;;4.23;;
795;SDS011;381;48.770;9.188;2023-05-07T00:35:02;3.60;;;3.40;;
795;SDS011;381;48.770;9.188;2023-05-07T00:40:07;4.60;;;4.20;;
795;SDS011;381;48.770;9.188;2023-05-07T00:45:10;3.80;;;3.50;;
795;SDS011;381;48.770;9.188;2023-05-07T00:50:12;4.03;;;3.73;;
795;SDS011;381;48.770;9.188;2023-05-07T00:55:16;4.20;;;3.90;;
795;SDS011;381;48.770;9.188;2023-05-07T01:00:18;4.37;;;4.07;;
795;SDS011;381;48.770;9.188;2023-05-07T01:05:21;4.00;;;3.77;;
795;SDS011;381;48.770;9.188;2023-05-07T01:10:27;4.23;;;3.93;;
795;SDS011;381;48.770;9.188;2023-05-07T01:15:30;3.97;;;3.67;;
795;SDS011;381;48.770;9.188;2023-05-07T01:20:32;4.53;;;4.13;;
795;SDS011;381;48.770;9.188;2023-05-07T01:25:36;4.47;;;4.17;;
795;SDS011;381;48.770;9.188;2023-05-07T01:30:40;4.87;;;4.57;;
795;SDS011;381;48.770;9.188;2023-05-07T01:35:46;4.40;;;4.10;;
795;SDS011;381;48.770;9.188;2023-05-07T01:40:52;6.13;;;4.23;;
795;SDS011;381;48.770;9.188;2023-05-07T01:45:55;4.43;;;4.13;;
795;SDS011;381;48.770;9.188;2023-05-07T01:50:58;4.27;;;4.07;;
795;SDS011;381;48.770;9.188;2023-05-07T01:56:03;4.20;;;3.90;;
795;SDS011;381;48.770;9.188;2023-05-07T02:01:07;4.30;;;4.10;;
795;SDS011;381;48.770;9.188;2023-05-07T02:06:09;4.87;;;4.40;;
795;SDS011;381;48.770;9.188;2023-05-07T02:11:15;4.77;;;4.27;;
795;SDS011;381;48.770;9.188;2023-05-07T02:16:17;3.97;;;3.77;;
795;SDS011;381;48.770;9.188;2023-05-07T02:21:20;4.27;;;4.03;;
795;SDS011;381;48.770;9.188;2023-05-07T02:26:24;4.30;;;4.10;;
795;SDS011;381;48.770;9.188;2023-05-07T02:31:27;5.17;;;4.17;;
795;SDS011;381;48.770;9.188;2023-05-07T02:36:29;4.67;;;4.40;;
795;SDS011;381;48.770;9.188;2023-05-07T02:41:39;5.10;;;4.80;;
795;SDS011;381;48.770;9.188;2023-05-07T02:46:41;5.63;;;5.13;;
795;SDS011;381;48.770;9.188;2023-05-07T02:51:46;5.43;;;5.07;;
795;SDS011;381;48.770;9.188;2023-05-07T02:56:55;5.60;;;5.10;;
795;SDS011;381;48.770;9.188;2023-05-07T03:01:58;6.83;;;5.47;;
795;SDS011;381;48.770;9.188;2023-05-07T03:07:00;6.30;;;5.80;;
795;SDS011;381;48.770;9.188;2023-05-07T03:12:04;8.37;;;6.20;;
795;SDS011;381;48.770;9.188;2023-05-07T03:17:06;5.97;;;5.47;;
795;SDS011;381;48.770;9.188;2023-05-07T03:22:08;5.47;;;5.10;;
795;SDS011;381;48.770;9.188;2023-05-07T03:27:12;4.73;;;4.33;;
795;SDS011;381;48.770;9.188;2023-05-07T03:32:14;4.57;;;4.37;;
795;SDS011;381;48.770;9.188;2023-05-07T03:37:16;4.90;;;4.60;;
795;SDS011;381;48.770;9.188;2023-05-07T03:42:20;4.60;;;4.30;;
795;SDS011;381;48.770;9.188;2023-05-07T03:47:25;5.03;;;4.73;;
795;SDS011;381;48.770;9.188;2023-05-07T03:52:28;4.93;;;4.57;;
795;SDS011;381;48.770;9.188;2023-05-07T03:57:38;3.97;;;3.77;;
795;SDS011;381;48.770;9.188;2023-05-07T04:02:40;4.83;;;4.57;;
795;SDS011;381;48.770;9.188;2023-05-07T04:07:43;5.77;;;4.70;;
795;SDS011;381;48.770;9.188;2023-05-07T04:12:49;4.43;;;4.13;;
795;SDS011;381;48.770;9.188;2023-05-07T04:17:55;4.53;;;4.23;;
795;SDS011;381;48.770;9.188;2023-05-07T04:22:59;4.73;;;4.43;;
795;SDS011;381;48.770;9.188;2023-05-07T04:28:03;4.93;;;4.73;;
795;SDS011;381;48.770;9.188;2023-05-07T04:33:07;5.40;;;5.00;;
795;SDS011;381;48.770;9.188;2023-05-07T04:38:10;4.90;;;4.50;;
795;SDS011;381;48.770;9.188;2023-05-07T04:43:14;5.23;;;4.93;;
795;SDS011;381;48.770;9.188;2023-05-07T04:48:21;5.73;;;5.30;;
795;SDS011;381;48.770;9.188;2023-05-07T04:53:25;5.23;;;4.83;;
795;SDS011;381;48.770;9.188;2023-05-07T04:58:31;5.47;;;5.00;;
795;SDS011;381;48.770;9.188;2023-05-07T05:03:33;5.10;;;4.80;;
795;SDS011;381;48.770;9.188;2023-05-07T05:08:35;5.10;;;4.80;;
795;SDS011;381;48.770;9.188;2023-05-07T05:13:40;6.50;;;6.00;;
795;SDS011;381;48.770;9.188;2023-05-07T05:18:47;5.83;;;5.30;;
795;SDS011;381;48.770;9.188;2023-05-07T05:23:52;5.13;;;4.80;;
795;SDS011;381;48.770;9.188;2023-05-07T05:28:58;5.60;;;5.20;;
795;SDS011;381;48.770;9.188;2023-05-07T05:34:03;5.93;;;4.80;;
795;SDS011;381;48.770;9.188;2023-05-07T05:39:05;5.70;;;5.23;;
795;SDS011;381;48.770;9.188;2023-05-07T05:44:10;6.20;;;5.27;;
795;SDS011;381;48.770;9.188;2023-05-07T05:49:13;6.63;;;6.13;;
795;SDS011;381;48.770;9.188;2023-05-07T05:54:16;6.00;;;5.50;;
795;SDS011;381;48.770;9.188;2023-05-07T05:59:19;7.27;;;6.87;;
795;SDS011;381;48.770;9.188;2023-05-07T06:04:22;6.40;;;6.00;;
795;SDS011;381;48.770;9.188;2023-05-07T06:09:24;6.90;;;6.30;;
795;SDS011;381;48.770;9.188;2023-05-07T06:14:28;7.20;;;6.50;;
795;SDS011;381;48.770;9.188;2023-05-07T06:19:30;7.07;;;6.50;;
795;SDS011;381;48.770;9.188;2023-05-07T06:24:34;7.57;;;6.97;;
795;SDS011;381;48.770;9.188;2023-05-07T06:29:38;7.90;;;7.30;;
795;SDS011;381;48.770;9.188;2023-05-07T06:34:46;6.90;;;6.40;;
795;SDS011;381;48.770;9.188;2023-05-07T06:39:49;7.93;;;7.13;;
795;SDS011;381;48.770;9.188;2023-05-07T06:44:53;7.97;;;7.27;;
795;SDS011;381;48.770;9.188;2023-05-07T06:49:55;7.77;;;6.97;;
795;SDS011;381;48.770;9.188;2023-05-07T06:55:01;7.97;;;7.27;;
795;SDS011;381;48.770;9.188;2023-05-07T07:00:06;10.40;;;8.40;;
795;SDS011;381;48.770;9.188;2023-05-07T07:05:16;8.57;;;7.80;;
795;SDS011;381;48.770;9.188;2023-05-07T07:10:19;8.20;;;7.60;;
795;SDS011;381;48.770;9.188;2023-05-07T07:15:23;8.47;;;7.77;;
795;SDS011;381;48.770;9.188;2023-05-07T07:20:26;8.00;;;7.40;;
795;SDS011;381;48.770;9.188;2023-05-07T07:25:29;7.80;;;7.10;;
795;SDS011;381;48.770;9.188;2023-05-07T07:30:32;7.10;;;6.50;;
795;SDS011;381;48.770;9.188;2023-05-07T07:35:35;6.80;;;6.30;;
795;SDS011;381;48.770;9.188;2023-05-07T07:40:39;6.70;;;6.10;;
795;SDS011;381;48.770;9.188;2023-05-07T07:45:43;6.67;;;6.13;;
795;SDS011;381;48.770;9.188;2023-05-07T07:50:48;7.80;;;6.77;;
795;SDS011;381;48.770;9.188;2023-05-07T07:55:51;6.03;;;5.53;;
795;SDS011;381;48.770;9.188;2023-05-07T08:00:59;5.87;;;5.43;;
795;SDS011;381;48.770;9.188;2023-05-07T08:06:01;6.77;;;6.03;;
795;SDS011;381;48.770;9.188;2023-05-07T08:11:05;6.10;;;5.70;;
795;SDS011;381;48.770;9.188;2023-05-07T08:16:11;4.67;;;4.23;;
795;SDS011;381;48.770;9.188;2023-05-07T08:21:14;4.20;;;4.00;;
795;SDS011;381;48.770;9.188;2023-05-07T08:26:16;4.20;;;3.90;;
795;SDS011;381;48.770;9.188;2023-05-07T08:31:20;4.60;;;4.20;;
795;SDS011;381;48.770;9.188;2023-05-07T08:36:22;4.93;;;4.53;;
795;SDS011;381;48.770;9.188;2023-05-07T08:41:24;5.17;;;4.73;;
795;SDS011;381;48.770;9.188;2023-05-07T08:46:29;4.97;;;4.63;;
795;SDS011;381;48.770;9.188;2023-05-07T08:51:33;4.27;;;3.97;;
795;SDS011;381;48.770;9.188;2023-05-07T08:56:36;4.20;;;4.00;;
795;SDS011;381;48.770;9.188;2023-05-07T09:01:41;3.17;;;3.07;;
795;SDS011;381;48.770;9.188;2023-05-07T09:06:44;3.90;;;3.60;;
795;SDS011;381;48.770;9.188;2023-05-07T09:11:49;3.53;;;3.23;;
795;SDS011;381;48.770;9.188;2023-05-07T09:17:00;3.43;;;3.07;;
795;SDS011;381;48.770;9.188;2023-05-07T09:22:04;3.70;;;3.40;;
795;SDS011;381;48.770;9.188;2023-05-07T09:27:28;3.83;;;3.53;;
795;SDS011;381;48.770;9.188;2023-05-07T09:32:35;3.90;;;3.60;;
795;SDS011;381;48.770;9.188;2023-05-07T09:37:39;2.60;;;2.50;;
795;SDS011;381;48.770;9.188;2023-05-07T09:42:43;3.60;;;3.40;;
795;SDS011;381;48.770;9.188;2023-05-07T09:47:46;3.40;;;3.20;;
795;SDS011;381;48.770;9.188;2023-05-07T09:52:50;3.30;;;3.10;;
795;SDS011;381;48.770;9.188;2023-05-07T09:57:53;3.50;;;3.20;;
795;SDS011;381;48.770;9.188;2023-05-07T10:03:00;2.70;;;2.53;;
795;SDS011;381;48.770;9.188;2023-05-07T10:08:13;4.23;;;3.93;;
795;SDS011;381;48.770;9.188;2023-05-07T10:13:18;4.17;;;3.90;;
795;SDS011;381;48.770;9.188;2023-05-07T10:18:25;4.07;;;3.73;;
795;SDS011;381;48.770;9.188;2023-05-07T10:23:35;3.63;;;3.43;;
795;SDS011;381;48.770;9.188;2023-05-07T10:28:39;4.13;;;3.73;;
795;SDS011;381;48.770;9.188;2023-05-07T10:33:47;3.50;;;3.30;;
795;SDS011;381;48.770;9.188;2023-05-07T10:38:54;3.90;;;3.57;;
795;SDS011;381;48.770;9.188;2023-05-07T10:43:57;3.80;;;3.40;;
795;SDS011;381;48.770;9.188;2023-05-07T10:49:11;3.77;;;3.57;;
795;SDS011;381;48.770;9.188;2023-05-07T10:54:25;4.70;;;4.30;;
795;SDS011;381;48.770;9.188;2023-05-07T10:59:39;3.77;;;3.33;;
795;SDS011;381;48.770;9.188;2023-05-07T11:05:19;3.37;;;3.13;;
795;SDS011;381;48.770;9.188;2023-05-07T11:16:17;3.63;;;3.43;;
795;SDS011;381;48.770;9.188;2023-05-07T11:21:35;3.23;;;3.10;;
795;SDS011;381;48.770;9.188;2023-05-07T11:26:51;4.40;;;3.47;;
795;SDS011;381;48.770;9.188;2023-05-07T11:31:55;3.33;;;3.07;;
795;SDS011;381;48.770;9.188;2023-05-07T11:37:03;3.23;;;2.97;;
795;SDS011;381;48.770;9.188;2023-05-07T11:42:25;2.97;;;2.80;;
795;SDS011;381;48.770;9.188;2023-05-07T11:47:29;3.50;;;3.20;;
795;SDS011;381;48.770;9.188;2023-05-07T11:52:33;3.70;;;3.50;;
795;SDS011;381;48.770;9.188;2023-05-07T11:57:36;3.40;;;3.20;;
795;SDS011;381;48.770;9.188;2023-05-07T12:02:38;4.33;;;4.03;;
795;SDS011;381;48.770;9.188;2023-05-07T12:07:43;3.80;;;3.50;;
795;SDS011;381;48.770;9.188;2023-05-07T12:12:45;3.77;;;3.57;;
795;SDS011;381;48.770;9.188;2023-05-07T12:17:48;3.90;;;3.70;;
795;SDS011;381;48.770;9.188;2023-05-07T12:22:52;4.20;;;3.90;;
795;SDS011;381;48.770;9.188;2023-05-07T12:27:55;8.00;;;5.83;;
795;SDS011;381;48.770;9.188;2023-05-07T12:32:59;14.17;;;12.37;;
795;SDS011;381;48.770;9.188;2023-05-07T12:38:02;12.30;;;11.30;;
795;SDS011;381;48.770;9.188;2023-05-07T12:48:17;37.73;;;12.57;;
795;SDS011;381;48.770;9.188;2023-05-07T12:53:23;28.53;;;11.20;;
795;SDS011;381;48.770;9.188;2023-05-07T12:58:27;11.67;;;10.47;;
795;SDS011;381;48.770;9.188;2023-05-07T13:03:31;11.13;;;9.63;;
795;SDS011;381;48.770;9.188;2023-05-07T13:08:36;13.33;;;10.50;;
795;SDS011;381;48.770;9.188;2023-05-07T13:13:40;15.00;;;13.40;;
795;SDS011;381;48.770;9.188;2023-05-07T13:18:43;12.97;;;11.97;;
795;SDS011;381;48.770;9.188;2023-05-07T13:23:47;14.30;;;13.40;;
795;SDS011;381;48.770;9.188;2023-05-07T13:28:49;12.20;;;11.40;;
795;SDS011;381;48.770;9.188;2023-05-07T13:33:51;14.23;;;13.30;;
795;SDS011;381;48.770;9.188;2023-05-07T13:38:55;13.90;;;13.03;;
795;SDS011;381;48.770;9.188;2023-05-07T13:43:59;13.47;;;12.57;;
795;SDS011;381;48.770;9.188;2023-05-07T13:49:01;13.23;;;12.50;;
795;SDS011;381;48.770;9.188;2023-05-07T13:54:05;12.30;;;11.60;;
795;SDS011;381;48.770;9.188;2023-05-07T13:59:07;12.53;;;11.87;;
795;SDS011;381;48.770;9.188;2023-05-07T14:04:09;11.67;;;10.97;;
795;SDS011;381;48.770;9.188;2023-05-07T14:09:13;13.17;;;12.23;;
795;SDS011;381;48.770;9.188;2023-05-07T14:14:15;14.03;;;13.23;;
795;SDS011;381;48.770;9.188;2023-05-07T14:19:17;14.27;;;13.57;;
795;SDS011;381;48.770;9.188;2023-05-07T14:24:20;15.53;;;14.27;;
795;SDS011;381;48.770;9.188;2023-05-07T14:29:22;14.97;;;14.17;;
795;SDS011;381;48.770;9.188;2023-05-07T14:34:25;14.07;;;13.37;;
795;SDS011;381;48.770;9.188;2023-05-07T14:39:28;14.47;;;13.60;;
795;SDS011;381;48.770;9.188;2023-05-07T14:44:30;14.07;;;13.30;;
795;SDS011;381;48.770;9.188;2023-05-07T14:49:33;14.70;;;14.00;;
795;SDS011;381;48.770;9.188;2023-05-07T14:54:36;14.90;;;14.20;;
795;SDS011;381;48.770;9.188;2023-05-07T14:59:40;13.87;;;13.27;;
795;SDS011;381;48.770;9.188;2023-05-07T15:04:42;13.30;;;12.30;;
795;SDS011;381;48.770;9.188;2023-05-07T15:09:48;13.07;;;12.37;;
795;SDS011;381;48.770;9.188;2023-05-07T15:14:50;13.43;;;12.80;;
795;SDS011;381;48.770;9.188;2023-05-07T15:19:52;14.70;;;13.90;;
795;SDS011;381;48.770;9.188;2023-05-07T15:24:56;13.67;;;12.87;;
795;SDS011;381;48.770;9.188;2023-05-07T15:29:59;14.60;;;13.70;;
795;SDS011;381;48.770;9.188;2023-05-07T15:35:01;15.40;;;14.57;;
795;SDS011;381;48.770;9.188;2023-05-07T15:40:06;15.97;;;15.07;;
795;SDS011;381;48.770;9.188;2023-05-07T15:45:09;15.70;;;14.80;;
795;SDS011;381;48.770;9.188;2023-05-07T15:50:11;14.77;;;13.97;;
795;SDS011;381;48.770;9.188;2023-05-07T15:55:15;15.30;;;14.30;;
795;SDS011;381;48.770;9.188;2023-05-07T16:00:17;15.40;;;14.50;;
795;SDS011;381;48.770;9.188;2023-05-07T16:05:20;13.80;;;12.80;;
795;SDS011;381;48.770;9.188;2023-05-07T16:10:23;15.67;;;14.57;;
795;SDS011;381;48.770;9.188;2023-05-07T16:15:25;15.60;;;14.80;;
795;SDS011;381;48.770;9.188;2023-05-07T16:20:28;15.37;;;14.47;;
795;SDS011;381;48.770;9.188;2023-05-07T16:25:32;15.73;;;14.73;;
795;SDS011;381;48.770;9.188;2023-05-07T16:30:34;15.77;;;14.97;;
795;SDS011;381;48.770;9.188;2023-05-07T16:35:36;15.00;;;14.10;;
795;SDS011;381;48.770;9.188;2023-05-07T16:40:40;12.13;;;11.03;;
795;SDS011;381;48.770;9.188;2023-05-07T16:45:43;15.70;;;14.80;;
795;SDS011;381;48.770;9.188;2023-05-07T16:50:46;20.17;;;18.67;;
795;SDS011;381;48.770;9.188;2023-05-07T16:55:50;18.60;;;17.20;;
795;SDS011;381;48.770;9.188;2023-05-07T17:00:55;17.63;;;16.33;;
795;SDS011;381;48.770;9.188;2023-05-07T17:05:57;17.17;;;16.07;;
795;SDS011;381;48.770;9.188;2023-05-07T17:11:01;17.83;;;16.73;;
795;SDS011;381;48.770;9.188;2023-05-07T17:16:03;17.70;;;16.57;;
795;SDS011;381;48.770;9.188;2023-05-07T17:21:06;17.77;;;16.50;;
795;SDS011;381;48.770;9.188;2023-05-07T17:26:11;17.47;;;16.37;;
795;SDS011;381;48.770;9.188;2023-05-07T17:31:14;18.43;;;16.90;;
795;SDS011;381;48.770;9.188;2023-05-07T17:36:16;18.50;;;17.27;;
795;SDS011;381;48.770;9.188;2023-05-07T17:41:19;19.20;;;18.00;;
795;SDS011;381;48.770;9.188;2023-05-07T17:46:21;18.63;;;17.43;;
795;SDS011;381;48.770;9.188;2023-05-07T17:51:24;18.33;;;17.13;;
795;SDS011;381;48.770;9.188;2023-05-07T17:56:29;16.60;;;15.70;;
795;SDS011;381;48.770;9.188;2023-05-07T18:01:31;16.80;;;15.77;;
795;SDS011;381;48.770;9.188;2023-05-07T18:06:34;16.47;;;15.37;;
795;SDS011;381;48.770;9.188;2023-05-07T18:11:37;15.80;;;14.90;;
795;SDS011;381;48.770;9.188;2023-05-07T18:16:40;13.47;;;12.60;;
795;SDS011;381;48.770;9.188;2023-05-07T18:21:42;14.23;;;13.27;;
795;SDS011;381;48.770;9.188;2023-05-07T18:26:45;18.13;;;16.63;;
795;SDS011;381;48.770;9.188;2023-05-07T18:31:48;15.83;;;14.93;;
795;SDS011;381;48.770;9.188;2023-05-07T18:36:50;17.20;;;16.10;;
795;SDS011;381;48.770;9.188;2023-05-07T18:41:54;18.07;;;16.67;;
795;SDS011;381;48.770;9.188;2023-05-07T18:46:57;18.60;;;17.40;;
795;SDS011;381;48.770;9.188;2023-05-07T18:51:59;17.73;;;16.53;;
795;SDS011;381;48.770;9.188;2023-05-07T18:57:03;17.70;;;16.43;;
795;SDS011;381;48.770;9.188;2023-05-07T19:02:05;18.40;;;17.10;;
795;SDS011;381;48.770;9.188;2023-05-07T19:07:07;19.87;;;18.37;;
795;SDS011;381;48.770;9.188;2023-05-07T19:12:11;18.47;;;17.07;;
795;SDS011;381;48.770;9.188;2023-05-07T19:17:13;18.57;;;17.17;;
795;SDS011;381;48.770;9.188;2023-05-07T19:22:16;16.53;;;15.13;;
795;SDS011;381;48.770;9.188;2023-05-07T19:27:19;21.00;;;19.20;;
795;SDS011;381;48.770;9.188;2023-05-07T19:32:22;17.67;;;16.33;;
795;SDS011;381;48.770;9.188;2023-05-07T19:37:24;17.20;;;15.90;;
795;SDS011;381;48.770;9.188;2023-05-07T19:42:28;16.20;;;15.20;;
795;SDS011;381;48.770;9.188;2023-05-07T19:47:30;16.77;;;15.50;;
795;SDS011;381;48.770;9.188;2023-05-07T19:52:35;15.53;;;14.33;;
795;SDS011;381;48.770;9.188;2023-05-07T19:57:39;15.80;;;14.80;;
795;SDS011;381;48.770;9.188;2023-05-07T20:02:41;14.73;;;13.77;;
795;SDS011;381;48.770;9.188;2023-05-07T20:07:43;16.63;;;15.43;;
795;SDS011;381;48.770;9.188;2023-05-07T20:12:46;13.63;;;12.83;;
795;SDS011;381;48.770;9.188;2023-05-07T20:17:49;13.80;;;12.83;;
795;SDS011;381;48.770;9.188;2023-05-07T20:22:51;14.03;;;13.03;;
795;SDS011;381;48.770;9.188;2023-05-07T20:27:54;14.47;;;13.47;;
795;SDS011;381;48.770;9.188;2023-05-07T20:32:57;13.53;;;12.60;;
795;SDS011;381;48.770;9.188;2023-05-07T20:37:59;13.47;;;12.57;;
795;SDS011;381;48.770;9.188;2023-05-07T20:43:03;13.90;;;12.90;;
795;SDS011;381;48.770;9.188;2023-05-07T20:48:06;13.37;;;12.57;;
795;SDS011;381;48.770;9.188;2023-05-07T20:53:08;15.30;;;14.30;;
795;SDS011;381;48.770;9.188;2023-05-07T20:58:11;13.73;;;12.40;;
795;SDS011;381;48.770;9.188;2023-05-07T21:03:13;13.40;;;12.40;;
795;SDS011;381;48.770;9.188;2023-05-07T21:08:15;14.93;;;13.73;;
795;SDS011;381;48.770;9.188;2023-05-07T21:13:19;16.43;;;15.23;;
795;SDS011;381;48.770;9.188;2023-05-07T21:18:21;16.00;;;14.80;;
795;SDS011;381;48.770;9.188;2023-05-07T21:23:25;16.43;;;15.13;;
795;SDS011;381;48.770;9.188;2023-05-07T21:28:29;18.13;;;16.73;;
795;SDS011;381;48.770;9.188;2023-05-07T21:33:31;18.30;;;16.90;;
795;SDS011;381;48.770;9.188;2023-05-07T21:38:33;22.23;;;20.23;;
795;SDS011;381;48.770;9.188;2023-05-07T21:43:38;18.63;;;17.20;;
795;SDS011;381;48.770;9.188;2023-05-07T21:48:40;18.70;;;17.20;;
795;SDS011;381;48.770;9.188;2023-05-07T21:53:42;22.27;;;19.77;;
795;SDS011;381;48.770;9.188;2023-05-07T21:58:45;17.67;;;16.20;;
795;SDS011;381;48.770;9.188;2023-05-07T22:03:48;17.70;;;16.30;;
795;SDS011;381;48.770;9.188;2023-05-07T22:08:51;17.60;;;16.00;;
795;SDS011;381;48.770;9.188;2023-05-07T22:13:54;17.77;;;15.97;;
795;SDS011;381;48.770;9.188;2023-05-07T22:18:56;16.80;;;15.50;;
795;SDS011;381;48.770;9.188;2023-05-07T22:23:59;18.03;;;16.40;;
795;SDS011;381;48.770;9.188;2023-05-07T22:29:02;17.43;;;16.00;;
795;SDS011;381;48.770;9.188;2023-05-07T22:34:04;18.50;;;16.90;;
795;SDS011;381;48.770;9.188;2023-05-07T22:39:07;18.87;;;17.07;;
795;SDS011;381;48.770;9.188;2023-05-07T22:44:10;21.83;;;19.93;;
795;SDS011;381;48.770;9.188;2023-05-07T22:49:12;20.07;;;18.27;;
795;SDS011;381;48.770;9.188;2023-05-07T22:54:14;21.03;;;19.10;;
795;SDS011;381;48.770;9.188;2023-05-07T22:59:20;22.73;;;20.73;;
795;SDS011;381;48.770;9.188;2023-05-07T23:04:22;24.57;;;22.07;;
795;SDS011;381;48.770;9.188;2023-05-07T23:09:24;23.07;;;20.70;;
795;SDS011;381;48.770;9.188;2023-05-07T23:14:27;25.50;;;23.00;;
795;SDS011;381;48.770;9.188;2023-05-07T23:19:29;23.20;;;20.80;;
795;SDS011;381;48.770;9.188;2023-05-07T23:24:31;23.23;;;21.03;;
795;SDS011;381;48.770;9.188;2023-05-07T23:29:35;22.20;;;20.10;;
795;SDS011;381;48.770;9.188;2023-05-07T23:34:37;23.27;;;20.40;;
795;SDS011;381;48.770;9.188;2023-05-07T23:39:39;21.93;;;19.80;;
795;SDS011;381;48.770;9.188;2023-05-07T23:44:43;22.23;;;20.17;;
795;SDS011;381;48.770;9.188;2023-05-07T23:49:45;22.90;;;20.60;;
795;SDS011;381;48.770;9.188;2023-05-07T23:54:47;23.30;;;20.90;;
795;SDS011;381;48.770;9.188;2023-05-07T23:59:50;22.53;;;20.13;;
